createdAt,value
2018-05-04T00:00:22.212Z,0
2018-05-04T00:02:23.624Z,0
2018-05-04T00:04:25.040Z,0
2018-05-04T00:06:26.456Z,0
2018-05-04T00:08:27.874Z,0
2018-05-04T00:10:29.285Z,0
2018-05-04T00:12:30.704Z,0
2018-05-04T00:14:32.120Z,0
2018-05-04T00:16:33.538Z,0
2018-05-04T00:18:34.959Z,0
2018-05-04T00:20:36.367Z,0
2018-05-04T00:22:37.786Z,0
2018-05-04T00:24:39.203Z,0
2018-05-04T00:26:40.618Z,0
2018-05-04T00:28:42.045Z,0
2018-05-04T00:30:43.451Z,0
2018-05-04T00:32:44.867Z,0
2018-05-04T00:34:46.287Z,0
2018-05-04T00:36:47.701Z,0
2018-05-04T00:38:49.120Z,0
2018-05-04T00:40:50.527Z,0
2018-05-04T00:42:51.949Z,0
2018-05-04T00:44:53.364Z,0
2018-05-04T00:46:54.780Z,0
2018-05-04T00:48:56.199Z,0
2018-05-04T00:50:57.610Z,0
2018-05-04T00:52:59.026Z,0
2018-05-04T00:55:00.443Z,0
2018-05-04T00:57:01.874Z,0
2018-05-04T00:59:03.269Z,0
2018-05-04T01:01:04.680Z,0
2018-05-04T01:03:06.101Z,0
2018-05-04T01:05:07.512Z,0
2018-05-04T01:07:08.926Z,0
2018-05-04T01:09:10.343Z,0
2018-05-04T01:11:11.760Z,0
2018-05-04T01:13:13.179Z,0
2018-05-04T01:15:14.590Z,0
2018-05-04T01:17:16.003Z,0
2018-05-04T01:19:17.414Z,0
2018-05-04T01:21:18.821Z,0
2018-05-04T01:23:20.243Z,0
2018-05-04T01:25:21.657Z,0
2018-05-04T01:27:23.078Z,0
2018-05-04T01:29:24.486Z,0
2018-05-04T01:31:25.902Z,0
2018-05-04T01:33:27.322Z,0
2018-05-04T01:35:28.738Z,0
2018-05-04T01:37:30.152Z,0
2018-05-04T01:39:31.591Z,0
2018-05-04T01:41:33.006Z,0
2018-05-04T01:43:34.426Z,0
2018-05-04T01:45:35.837Z,0
2018-05-04T01:47:37.252Z,0
2018-05-04T01:49:38.666Z,0
2018-05-04T01:51:40.085Z,0
2018-05-04T01:53:41.495Z,0
2018-05-04T01:55:42.912Z,0
2018-05-04T01:57:44.325Z,0
2018-05-04T01:59:45.741Z,0
2018-05-04T02:01:47.153Z,0
2018-05-04T02:03:48.600Z,0
2018-05-04T02:05:50.006Z,0
2018-05-04T02:07:51.500Z,0
2018-05-04T02:09:52.835Z,0
2018-05-04T02:11:54.248Z,0
2018-05-04T02:13:55.663Z,0
2018-05-04T02:15:57.080Z,0
2018-05-04T02:17:58.495Z,0
2018-05-04T02:19:59.915Z,0
2018-05-04T02:22:01.325Z,0
2018-05-04T02:24:02.741Z,0
2018-05-04T02:26:04.157Z,0
2018-05-04T02:28:05.573Z,0
2018-05-04T02:30:06.984Z,0
2018-05-04T02:32:08.403Z,0
2018-05-04T02:34:09.845Z,0
2018-05-04T02:36:11.271Z,0
2018-05-04T02:38:12.687Z,0
2018-05-04T02:40:14.098Z,0
2018-05-04T02:42:15.511Z,0
2018-05-04T02:44:16.923Z,0
2018-05-04T02:46:18.338Z,0
2018-05-04T02:48:19.758Z,0
2018-05-04T02:50:21.164Z,0
2018-05-04T02:52:22.575Z,0
2018-05-04T02:54:23.991Z,0
2018-05-04T02:56:25.404Z,0
2018-05-04T02:58:26.818Z,0
2018-05-04T03:00:28.234Z,0
2018-05-04T03:02:29.649Z,0
2018-05-04T03:04:31.095Z,0
2018-05-04T03:06:32.513Z,0
2018-05-04T03:08:33.925Z,0
2018-05-04T03:10:35.337Z,0
2018-05-04T03:12:36.746Z,0
2018-05-04T03:14:38.166Z,0
2018-05-04T03:16:39.653Z,0
2018-05-04T03:18:41.119Z,0
2018-05-04T03:20:42.570Z,0
2018-05-04T03:22:43.985Z,0
2018-05-04T03:24:45.461Z,0
2018-05-04T03:26:46.943Z,0
2018-05-04T03:28:48.459Z,0
2018-05-04T03:30:49.892Z,0
2018-05-04T03:32:51.305Z,0
2018-05-04T03:34:52.723Z,0
2018-05-04T03:36:54.129Z,0
2018-05-04T03:38:55.538Z,0
2018-05-04T03:40:56.951Z,0
2018-05-04T03:42:58.459Z,0
2018-05-04T03:44:59.776Z,0
2018-05-04T03:47:01.189Z,0
2018-05-04T03:49:02.603Z,0
2018-05-04T03:51:04.018Z,0
2018-05-04T03:53:05.432Z,0
2018-05-04T03:55:06.847Z,0
2018-05-04T03:57:08.257Z,0
2018-05-04T03:59:09.671Z,0
2018-05-04T04:01:11.086Z,0
2018-05-04T04:03:12.501Z,0
2018-05-04T04:05:13.918Z,0
2018-05-04T04:07:15.330Z,0
2018-05-04T04:09:16.748Z,0
2018-05-04T04:11:18.157Z,0
2018-05-04T04:13:19.572Z,0
2018-05-04T04:15:20.985Z,0
2018-05-04T04:17:22.398Z,0
2018-05-04T04:19:23.817Z,5
2018-05-04T04:21:25.230Z,5
2018-05-04T04:23:26.643Z,5
2018-05-04T04:25:28.060Z,5
2018-05-04T04:27:29.473Z,5
2018-05-04T04:29:30.886Z,5
2018-05-04T04:31:32.297Z,5
2018-05-04T04:33:33.718Z,5
2018-05-04T04:35:35.126Z,5
2018-05-04T04:37:36.537Z,5
2018-05-04T04:39:37.957Z,10
2018-05-04T04:41:39.386Z,10
2018-05-04T04:43:40.795Z,10
2018-05-04T04:45:42.205Z,10
2018-05-04T04:47:43.617Z,10
2018-05-04T04:49:45.032Z,10
2018-05-04T04:51:46.494Z,10
2018-05-04T04:53:47.862Z,10
2018-05-04T04:55:49.279Z,15
2018-05-04T04:57:50.696Z,15
2018-05-04T04:59:52.118Z,15
2018-05-04T05:01:53.548Z,15
2018-05-04T05:03:54.952Z,15
2018-05-04T05:05:56.367Z,15
2018-05-04T05:07:57.786Z,15
2018-05-04T05:09:59.204Z,15
2018-05-04T05:12:00.618Z,20
2018-05-04T05:14:02.040Z,20
2018-05-04T05:16:03.466Z,20
2018-05-04T05:18:04.885Z,20
2018-05-04T05:20:06.303Z,25
2018-05-04T05:22:07.731Z,25
2018-05-04T05:24:09.128Z,25
2018-05-04T05:26:10.553Z,25
2018-05-04T05:28:11.971Z,25
2018-05-04T05:30:13.392Z,30
2018-05-04T05:32:14.808Z,30
2018-05-04T05:34:16.226Z,35
2018-05-04T05:36:17.651Z,80
2018-05-04T05:38:19.067Z,145
2018-05-04T05:40:20.480Z,60
2018-05-04T05:42:21.977Z,85
2018-05-04T05:44:23.314Z,95
2018-05-04T05:46:24.744Z,90
2018-05-04T05:48:26.164Z,170
2018-05-04T05:50:27.594Z,230
2018-05-04T05:52:29.003Z,75
2018-05-04T05:54:30.426Z,95
2018-05-04T05:56:31.845Z,75
2018-05-04T05:58:33.265Z,100
2018-05-04T06:00:34.688Z,80
2018-05-04T06:02:36.107Z,130
2018-05-04T06:04:37.527Z,560
2018-05-04T06:06:38.949Z,350
2018-05-04T06:08:40.372Z,275
2018-05-04T06:10:41.789Z,120
2018-05-04T06:12:43.220Z,325
2018-05-04T06:14:44.647Z,545
2018-05-04T06:16:46.067Z,615
2018-05-04T06:18:47.494Z,925
2018-05-04T06:20:48.917Z,985
2018-05-04T06:22:50.346Z,1000
2018-05-04T06:24:51.773Z,915
2018-05-04T06:26:53.199Z,970
2018-05-04T06:28:54.627Z,990
2018-05-04T06:30:56.061Z,1005
2018-05-04T06:32:57.494Z,1055
2018-05-04T06:34:58.925Z,850
2018-05-04T06:37:00.363Z,775
2018-05-04T06:39:01.834Z,545
2018-05-04T06:41:03.274Z,725
2018-05-04T06:43:04.705Z,1040
2018-05-04T06:45:06.141Z,670
2018-05-04T06:47:07.575Z,720
2018-05-04T06:49:09.011Z,1035
2018-05-04T06:51:10.447Z,735
2018-05-04T06:53:11.890Z,330
2018-05-04T06:55:13.314Z,260
2018-05-04T06:57:14.749Z,225
2018-05-04T06:59:16.207Z,315
2018-05-04T07:01:17.611Z,245
2018-05-04T07:03:19.044Z,255
2018-05-04T07:05:20.476Z,615
2018-05-04T07:07:21.908Z,590
2018-05-04T07:09:23.337Z,700
2018-05-04T07:11:24.768Z,575
2018-05-04T07:13:26.197Z,110
2018-05-04T07:15:27.628Z,155
2018-05-04T07:17:29.058Z,110
2018-05-04T07:19:30.495Z,390
2018-05-04T07:21:31.922Z,110
2018-05-04T07:23:33.352Z,140
2018-05-04T07:25:34.784Z,140
2018-05-04T07:27:36.208Z,70
2018-05-04T07:29:37.636Z,65
2018-05-04T07:31:39.066Z,60
2018-05-04T07:33:40.491Z,60
2018-05-04T07:35:41.918Z,60
2018-05-04T07:37:43.344Z,65
2018-05-04T07:39:44.936Z,65
2018-05-04T07:41:46.298Z,65
2018-05-04T07:43:47.723Z,65
2018-05-04T07:45:49.148Z,65
2018-05-04T07:47:50.750Z,65
2018-05-04T07:49:52.169Z,70
2018-05-04T07:51:53.616Z,70
2018-05-04T07:53:55.050Z,70
2018-05-04T07:55:56.463Z,70
2018-05-04T07:57:57.886Z,75
2018-05-04T07:59:59.330Z,75
2018-05-04T08:02:00.745Z,80
2018-05-04T08:04:02.162Z,85
2018-05-04T08:06:03.591Z,85
2018-05-04T08:08:05.015Z,90
2018-05-04T08:10:06.442Z,95
2018-05-04T08:12:07.863Z,95
2018-05-04T08:14:09.288Z,100
2018-05-04T08:16:10.712Z,100
2018-05-04T08:18:12.148Z,105
2018-05-04T08:20:13.575Z,105
2018-05-04T08:22:15.001Z,110
2018-05-04T08:24:16.426Z,105
2018-05-04T08:26:17.854Z,105
2018-05-04T08:28:19.281Z,110
2018-05-04T08:30:22.361Z,110
2018-05-04T08:32:23.695Z,115
2018-05-04T08:34:25.122Z,120
2018-05-04T08:36:26.602Z,115
2018-05-04T08:38:28.033Z,115
2018-05-04T08:40:29.462Z,115
2018-05-04T08:42:30.891Z,120
2018-05-04T08:44:32.310Z,120
2018-05-04T08:46:33.725Z,120
2018-05-04T08:48:35.163Z,120
2018-05-04T08:50:36.591Z,120
2018-05-04T08:52:38.023Z,125
2018-05-04T08:54:39.450Z,125
2018-05-04T08:56:40.880Z,125
2018-05-04T08:58:42.310Z,125
2018-05-04T09:00:43.739Z,130
2018-05-04T09:02:45.177Z,130
2018-05-04T09:04:46.618Z,130
2018-05-04T09:06:48.042Z,130
2018-05-04T09:08:49.474Z,130
2018-05-04T09:10:50.912Z,130
2018-05-04T09:12:52.699Z,130
2018-05-04T09:14:54.206Z,130
2018-05-04T09:16:55.678Z,130
2018-05-04T09:18:57.102Z,130
2018-05-04T09:20:58.530Z,130
2018-05-04T09:22:59.963Z,135
2018-05-04T09:25:01.398Z,135
2018-05-04T09:27:02.834Z,135
2018-05-04T09:29:04.260Z,135
2018-05-04T09:31:05.716Z,135
2018-05-04T09:33:07.128Z,130
2018-05-04T09:35:08.577Z,130
2018-05-04T09:37:10.072Z,130
2018-05-04T09:39:11.445Z,135
2018-05-04T09:41:12.878Z,140
2018-05-04T09:43:14.486Z,135
2018-05-04T09:45:15.774Z,135
2018-05-04T09:47:17.212Z,140
2018-05-04T09:49:18.682Z,140
2018-05-04T09:51:20.111Z,120
2018-05-04T09:53:21.644Z,140
2018-05-04T09:55:23.077Z,150
2018-05-04T09:57:24.506Z,155
2018-05-04T09:59:25.934Z,155
2018-05-04T10:01:27.366Z,155
2018-05-04T10:03:28.841Z,150
2018-05-04T10:05:30.228Z,155
2018-05-04T10:07:31.683Z,155
2018-05-04T10:09:33.098Z,160
2018-05-04T10:11:34.531Z,160
2018-05-04T10:13:35.964Z,165
2018-05-04T10:15:37.397Z,155
2018-05-04T10:17:38.832Z,155
2018-05-04T10:19:40.264Z,120
2018-05-04T10:21:41.699Z,155
2018-05-04T10:23:43.207Z,155
2018-05-04T10:25:44.623Z,155
2018-05-04T10:27:46.251Z,150
2018-05-04T10:29:47.626Z,150
2018-05-04T10:31:49.060Z,150
2018-05-04T10:33:50.609Z,145
2018-05-04T10:35:52.103Z,145
2018-05-04T10:37:53.470Z,145
2018-05-04T10:39:54.954Z,140
2018-05-04T10:41:57.077Z,135
2018-05-04T10:43:58.494Z,135
2018-05-04T10:46:00.417Z,130
2018-05-04T10:48:01.954Z,130
2018-05-04T10:50:03.462Z,125
2018-05-04T10:52:04.906Z,125
2018-05-04T10:54:06.340Z,125
2018-05-04T10:56:07.782Z,120
2018-05-04T10:58:09.227Z,120
2018-05-04T11:00:10.728Z,120
2018-05-04T11:02:12.144Z,115
2018-05-04T11:04:13.642Z,115
2018-05-04T11:06:15.125Z,115
2018-05-04T11:08:16.691Z,115
2018-05-04T11:10:18.252Z,115
2018-05-04T11:12:19.772Z,115
2018-05-04T11:14:21.271Z,110
2018-05-04T11:16:22.854Z,110
2018-05-04T11:18:24.378Z,105
2018-05-04T11:20:26.290Z,110
2018-05-04T11:22:28.292Z,110
2018-05-04T11:24:29.832Z,105
2018-05-04T11:26:31.387Z,110
2018-05-04T11:28:32.911Z,105
2018-05-04T11:30:34.427Z,105
2018-05-04T11:32:35.961Z,105
2018-05-04T11:34:37.449Z,110
2018-05-04T11:36:39.049Z,105
2018-05-04T11:38:40.575Z,105
2018-05-04T11:40:42.167Z,105
2018-05-04T11:42:44.110Z,105
2018-05-04T11:44:45.607Z,100
2018-05-04T11:46:47.123Z,100
2018-05-04T11:48:48.774Z,100
2018-05-04T11:50:50.287Z,100
2018-05-04T11:52:51.822Z,100
2018-05-04T11:54:53.380Z,100
2018-05-04T11:56:54.961Z,100
2018-05-04T11:58:56.493Z,100
2018-05-04T12:00:58.859Z,95
2018-05-04T12:03:00.380Z,100
2018-05-04T12:05:01.887Z,100
2018-05-04T12:07:03.401Z,100
2018-05-04T12:09:04.958Z,100
2018-05-04T12:11:06.902Z,95
2018-05-04T12:13:08.421Z,100
2018-05-04T12:15:09.961Z,95
2018-05-04T12:17:11.498Z,95
2018-05-04T12:19:13.923Z,95
2018-05-04T12:21:15.798Z,95
2018-05-04T12:23:17.313Z,95
2018-05-04T12:25:18.977Z,95
2018-05-04T12:27:20.869Z,95
2018-05-04T12:29:22.414Z,95
2018-05-04T12:31:23.991Z,90
2018-05-04T12:33:25.513Z,95
2018-05-04T12:35:27.438Z,90
2018-05-04T12:37:29.039Z,90
2018-05-04T12:39:30.537Z,90
2018-05-04T12:41:32.087Z,90
2018-05-04T12:43:33.605Z,90
2018-05-04T12:45:35.144Z,90
2018-05-04T12:47:36.657Z,90
2018-05-04T12:49:38.224Z,90
2018-05-04T12:51:39.751Z,90
2018-05-04T12:53:41.282Z,90
2018-05-04T12:55:42.817Z,85
2018-05-04T12:57:44.369Z,85
2018-05-04T12:59:45.949Z,85
2018-05-04T13:01:47.560Z,85
2018-05-04T13:03:49.045Z,85
2018-05-04T13:05:50.550Z,85
2018-05-04T13:07:52.188Z,85
2018-05-04T13:09:53.742Z,85
2018-05-04T13:11:55.321Z,85
2018-05-04T13:13:56.838Z,85
2018-05-04T13:15:58.340Z,85
2018-05-04T13:18:00.795Z,85
2018-05-04T13:20:02.563Z,85
2018-05-04T13:22:04.094Z,85
2018-05-04T13:24:05.679Z,65
2018-05-04T13:26:07.402Z,85
2018-05-04T13:28:09.475Z,85
2018-05-04T13:30:10.922Z,85
2018-05-04T13:32:13.319Z,85
2018-05-04T13:34:14.962Z,85
2018-05-04T13:36:16.973Z,80
2018-05-04T13:38:18.547Z,85
2018-05-04T13:40:20.103Z,85
2018-05-04T13:42:21.643Z,85
2018-05-04T13:44:23.312Z,80
2018-05-04T13:46:24.762Z,80
2018-05-04T13:48:26.322Z,80
2018-05-04T13:50:27.915Z,80
2018-05-04T13:52:29.464Z,80
2018-05-04T13:54:31.504Z,80
2018-05-04T13:56:33.347Z,80
2018-05-04T13:58:34.870Z,80
2018-05-04T14:00:36.759Z,80
2018-05-04T14:02:38.263Z,80
2018-05-04T14:04:39.804Z,75
2018-05-04T14:06:41.282Z,75
2018-05-04T14:08:43.109Z,75
2018-05-04T14:11:25.513Z,75
2018-05-04T14:13:26.951Z,75
2018-05-04T14:15:28.431Z,75
2018-05-04T14:17:29.844Z,75
2018-05-04T14:19:31.310Z,70
2018-05-04T14:21:32.765Z,70
2018-05-04T14:23:34.256Z,70
2018-05-04T14:25:35.685Z,70
2018-05-04T14:27:37.133Z,70
2018-05-04T14:29:38.675Z,70
2018-05-04T14:31:40.117Z,70
2018-05-04T14:33:41.622Z,70
2018-05-04T14:35:43.119Z,70
2018-05-04T14:37:44.682Z,70
2018-05-04T14:39:46.313Z,70
2018-05-04T14:41:47.828Z,70
2018-05-04T14:43:49.484Z,70
2018-05-04T14:45:51.052Z,70
2018-05-04T14:47:52.518Z,70
2018-05-04T14:49:54.045Z,65
2018-05-04T14:52:37.331Z,65
2018-05-04T14:54:39.097Z,65
2018-05-04T14:56:40.583Z,65
2018-05-04T14:58:42.074Z,65
2018-05-04T15:00:45.810Z,65
2018-05-04T15:02:50.918Z,65
2018-05-04T15:04:53.234Z,60
2018-05-04T15:06:54.762Z,60
2018-05-04T15:08:56.209Z,60
2018-05-04T15:10:57.647Z,60
2018-05-04T15:12:59.091Z,60
2018-05-04T15:15:00.519Z,60
2018-05-04T15:17:02.006Z,60
2018-05-04T15:19:03.665Z,60
2018-05-04T15:21:05.155Z,60
2018-05-04T15:23:06.773Z,60
2018-05-04T15:25:08.217Z,55
2018-05-04T15:27:09.757Z,55
2018-05-04T15:29:11.938Z,55
2018-05-04T15:31:13.469Z,55
2018-05-04T15:33:14.994Z,55
2018-05-04T15:35:16.544Z,55
2018-05-04T15:37:18.112Z,50
2018-05-04T15:39:19.706Z,50
2018-05-04T15:41:21.230Z,50
2018-05-04T15:43:22.770Z,50
2018-05-04T15:45:24.268Z,45
2018-05-04T15:47:25.779Z,45
2018-05-04T15:50:07.339Z,45
2018-05-04T15:52:08.772Z,45
2018-05-04T15:54:10.215Z,45
2018-05-04T15:56:12.746Z,45
2018-05-04T15:58:14.222Z,45
2018-05-04T16:00:15.949Z,45
2018-05-04T16:02:17.517Z,45
2018-05-04T16:04:19.068Z,45
2018-05-04T16:06:20.632Z,45
2018-05-04T16:08:22.178Z,45
2018-05-04T16:11:04.596Z,40
2018-05-04T16:13:06.025Z,40
2018-05-04T16:15:07.469Z,40
2018-05-04T16:17:09.623Z,40
2018-05-04T16:19:11.287Z,40
2018-05-04T16:21:12.854Z,40
2018-05-04T16:23:14.448Z,40
2018-05-04T16:25:16.071Z,35
2018-05-04T16:27:17.522Z,35
2018-05-04T16:29:19.039Z,35
2018-05-04T16:31:20.650Z,35
2018-05-04T16:33:22.281Z,35
2018-05-04T16:35:24.595Z,35
2018-05-04T16:38:06.025Z,35
2018-05-04T16:40:07.466Z,35
2018-05-04T16:42:09.119Z,35
2018-05-04T16:44:10.997Z,35
2018-05-04T16:46:12.866Z,35
2018-05-04T16:48:14.357Z,35
2018-05-04T16:50:16.244Z,35
2018-05-04T16:52:17.698Z,30
2018-05-04T16:54:19.133Z,30
2018-05-04T16:56:20.568Z,30
2018-05-04T16:58:21.998Z,30
2018-05-04T17:00:23.425Z,30
2018-05-04T17:02:24.856Z,30
2018-05-04T17:04:26.289Z,30
2018-05-04T17:06:27.717Z,30
2018-05-04T17:08:29.147Z,25
2018-05-04T17:10:30.578Z,25
2018-05-04T17:12:32.016Z,25
2018-05-04T17:14:33.442Z,25
2018-05-04T17:16:34.873Z,25
2018-05-04T17:18:36.310Z,25
2018-05-04T17:20:37.734Z,20
2018-05-04T17:22:39.165Z,20
2018-05-04T17:24:40.597Z,20
2018-05-04T17:26:42.026Z,20
2018-05-04T17:28:43.461Z,20
2018-05-04T17:30:44.891Z,20
2018-05-04T17:32:46.324Z,20
2018-05-04T17:34:47.764Z,20
2018-05-04T17:36:49.184Z,20
2018-05-04T17:38:50.614Z,20
2018-05-04T17:40:52.045Z,20
2018-05-04T17:42:53.567Z,20
2018-05-04T17:44:55.002Z,20
2018-05-04T17:46:56.427Z,15
2018-05-04T17:48:57.857Z,15
2018-05-04T17:50:59.287Z,15
2018-05-04T17:53:00.717Z,15
2018-05-04T17:55:02.207Z,15
2018-05-04T17:57:03.594Z,15
2018-05-04T17:59:05.025Z,15
2018-05-04T18:01:06.455Z,10
2018-05-04T18:03:07.929Z,10
2018-05-04T18:05:09.311Z,10
2018-05-04T18:07:10.848Z,10
2018-05-04T18:09:12.279Z,10
2018-05-04T18:11:13.713Z,10
2018-05-04T18:13:15.139Z,10
2018-05-04T18:15:16.567Z,10
2018-05-04T18:17:18.000Z,5
2018-05-04T18:19:19.424Z,5
2018-05-04T18:21:20.860Z,5
2018-05-04T18:23:22.287Z,5
2018-05-04T18:25:23.717Z,5
2018-05-04T18:27:25.149Z,5
2018-05-04T18:29:26.829Z,5
2018-05-04T18:31:28.241Z,5
2018-05-04T18:33:29.669Z,5
2018-05-04T18:35:31.096Z,5
2018-05-04T18:37:32.522Z,0
2018-05-04T18:39:34.179Z,0
2018-05-04T18:41:35.604Z,0
2018-05-04T18:43:37.027Z,0
2018-05-04T18:45:38.445Z,0
2018-05-04T18:47:39.946Z,0
2018-05-04T18:49:41.359Z,0
2018-05-04T18:51:42.796Z,0
2018-05-04T18:53:44.214Z,0
2018-05-04T18:55:45.642Z,0
2018-05-04T18:57:49.421Z,0
2018-05-04T18:59:51.865Z,0
2018-05-04T19:01:53.349Z,0
2018-05-04T19:03:54.779Z,0
2018-05-04T19:05:56.200Z,0
2018-05-04T19:07:57.632Z,0
2018-05-04T19:09:59.052Z,0
2018-05-04T19:12:00.478Z,0
2018-05-04T19:14:01.899Z,0
2018-05-04T19:16:03.321Z,0
2018-05-04T19:18:04.747Z,0
2018-05-04T19:20:06.170Z,0
2018-05-04T19:22:07.591Z,0
2018-05-04T19:24:09.014Z,0
2018-05-04T19:26:10.442Z,0
2018-05-04T19:28:11.865Z,0
2018-05-04T19:30:13.290Z,0
2018-05-04T19:32:14.715Z,0
2018-05-04T19:34:16.140Z,0
2018-05-04T19:36:17.566Z,0
2018-05-04T19:38:18.988Z,0
2018-05-04T19:40:20.411Z,0
2018-05-04T19:42:21.835Z,0
2018-05-04T19:44:23.274Z,0
2018-05-04T19:46:24.690Z,0
2018-05-04T19:48:26.103Z,0
2018-05-04T19:50:27.536Z,0
2018-05-04T19:52:29.024Z,0
2018-05-04T19:54:30.378Z,0
2018-05-04T19:56:31.798Z,0
2018-05-04T19:58:34.960Z,0
2018-05-04T20:00:36.379Z,0
2018-05-04T20:02:37.802Z,0
2018-05-04T20:04:39.227Z,0
2018-05-04T20:06:40.649Z,0
2018-05-04T20:08:42.177Z,0
2018-05-04T20:10:43.612Z,0
2018-05-04T20:12:45.034Z,0
2018-05-04T20:14:46.452Z,0
2018-05-04T20:16:47.885Z,0
2018-05-04T20:18:49.363Z,0
2018-05-04T20:20:50.799Z,0
2018-05-04T20:22:52.222Z,0
2018-05-04T20:24:53.651Z,0
2018-05-04T20:26:55.066Z,0
2018-05-04T20:28:56.617Z,0
2018-05-04T20:30:58.045Z,0
2018-05-04T20:32:59.569Z,0
2018-05-04T20:35:01.104Z,0
2018-05-04T20:37:02.554Z,0
2018-05-04T20:39:04.221Z,0
2018-05-04T20:41:05.705Z,0
2018-05-04T20:43:07.646Z,0
2018-05-04T20:45:09.370Z,0
2018-05-04T20:47:11.389Z,0
2018-05-04T20:49:13.153Z,0
2018-05-04T20:51:14.634Z,0
2018-05-04T20:53:16.110Z,0
2018-05-04T20:55:17.585Z,0
2018-05-04T20:57:19.058Z,0
2018-05-04T20:59:20.557Z,0
2018-05-04T21:01:22.065Z,0
2018-05-04T21:03:23.571Z,0
2018-05-04T21:05:25.037Z,0
2018-05-04T21:07:26.512Z,0
2018-05-04T21:09:27.973Z,0
2018-05-04T21:11:29.398Z,0
2018-05-04T21:13:30.893Z,0
2018-05-04T21:15:32.388Z,0
2018-05-04T21:17:34.166Z,0
2018-05-04T21:19:35.900Z,0
2018-05-04T21:21:37.590Z,0
2018-05-04T21:23:39.701Z,0
2018-05-04T21:25:41.451Z,0
2018-05-04T21:27:43.126Z,0
2018-05-04T21:29:44.884Z,0
2018-05-04T21:31:46.557Z,0
2018-05-04T21:33:48.382Z,0
2018-05-04T21:35:50.204Z,0
2018-05-04T21:37:51.860Z,0
2018-05-04T21:39:53.528Z,0
2018-05-04T21:41:55.215Z,0
2018-05-04T21:43:57.216Z,0
2018-05-04T21:45:58.819Z,0
2018-05-04T21:48:00.819Z,0
2018-05-04T21:50:02.530Z,0
2018-05-04T21:52:04.125Z,0
2018-05-04T21:54:05.757Z,0
2018-05-04T21:56:07.717Z,0
2018-05-04T21:58:09.515Z,0
2018-05-04T22:00:11.542Z,0
2018-05-04T22:02:13.252Z,0
2018-05-04T22:04:14.891Z,0
2018-05-04T22:06:16.606Z,0
2018-05-04T22:08:18.160Z,0
2018-05-04T22:10:19.620Z,0
2018-05-04T22:12:21.713Z,0
2018-05-04T22:14:23.366Z,0
2018-05-04T22:16:25.189Z,0
2018-05-04T22:18:26.941Z,0
2018-05-04T22:20:28.622Z,0
2018-05-04T22:22:30.502Z,0
2018-05-04T22:24:32.172Z,0
2018-05-04T22:26:33.977Z,0
2018-05-04T22:28:35.611Z,0
2018-05-04T22:30:37.272Z,0
2018-05-04T22:32:38.999Z,0
2018-05-04T22:34:40.505Z,0
2018-05-04T22:36:41.949Z,0
2018-05-04T22:38:43.390Z,0
2018-05-04T22:40:44.984Z,0
2018-05-04T22:42:46.775Z,0
2018-05-04T22:44:48.710Z,0
2018-05-04T22:46:50.731Z,0
2018-05-04T22:48:52.248Z,0
2018-05-04T22:50:53.734Z,0
2018-05-04T22:52:55.167Z,0
2018-05-04T22:54:56.641Z,0
2018-05-04T22:56:58.124Z,0
2018-05-04T22:58:59.629Z,0
2018-05-04T23:01:01.092Z,0
2018-05-04T23:03:02.509Z,0
2018-05-04T23:05:03.948Z,0
2018-05-04T23:07:05.370Z,0
2018-05-04T23:09:06.819Z,0
2018-05-04T23:11:08.244Z,0
2018-05-04T23:13:09.961Z,0
2018-05-04T23:15:11.659Z,0
2018-05-04T23:17:13.326Z,0
2018-05-04T23:19:14.968Z,0
2018-05-04T23:21:16.421Z,0
2018-05-04T23:23:17.918Z,0
2018-05-04T23:25:19.418Z,0
2018-05-04T23:27:21.156Z,0
2018-05-04T23:29:22.843Z,0
2018-05-04T23:31:24.518Z,0
2018-05-04T23:33:26.511Z,0
2018-05-04T23:35:28.026Z,0
2018-05-04T23:37:29.788Z,0
2018-05-04T23:39:31.266Z,0
2018-05-04T23:41:32.749Z,0
2018-05-04T23:43:34.223Z,0
2018-05-04T23:45:35.714Z,0
2018-05-04T23:47:37.222Z,0
2018-05-04T23:49:38.684Z,0
2018-05-04T23:51:40.204Z,0
2018-05-04T23:53:41.667Z,0
2018-05-04T23:55:43.144Z,0
2018-05-04T23:57:44.618Z,0
2018-05-04T23:59:46.108Z,0
